Time;durP1;ratioP1;P1;durP2;ratioP2;P2;SDS_P1;SDS_P2;PMS_P1;PMS_P2;Temp;Humidity;BMP_temperature;BMP_pressure;BME280_temperature;BME280_humidity;BME280_pressure;Samples;Min_cycle;Max_cycle;Signal;HPM_P1;HPM_P2
2023/05/12 00:00:03;;;;;;;17.17;10.15;;;11.90;99.90;;;;;;5090995;28;20059;-61
2023/05/12 00:02:30;;;;;;;17.52;10.05;;;11.90;99.90;;;;;;5084070;28;20054;-60
2023/05/12 00:04:55;;;;;;;17.25;9.80;;;11.90;99.90;;;;;;5090978;28;20075;-61
2023/05/12 00:07:21;;;;;;;18.17;9.63;;;11.90;99.90;;;;;;5091980;28;20072;-61
2023/05/12 00:09:47;;;;;;;24.27;11.63;;;11.90;99.90;;;;;;5091870;28;20040;-61
2023/05/12 00:12:12;;;;;;;22.05;11.80;;;11.90;99.90;;;;;;5092291;28;20064;-61
2023/05/12 00:14:38;;;;;;;23.35;12.35;;;11.90;99.90;;;;;;5091598;28;20085;-61
2023/05/12 00:17:05;;;;;;;25.30;12.38;;;11.90;99.90;;;;;;5089873;28;20032;-61
2023/05/12 00:19:35;;;;;;;24.73;11.40;;;11.90;99.90;;;;;;5090198;28;20040;-61
2023/05/12 00:22:01;;;;;;;21.50;11.70;;;11.90;99.90;;;;;;5092072;28;20485;-61
2023/05/12 00:24:26;;;;;;;22.70;12.27;;;11.90;99.90;;;;;;5091236;28;20039;-61
2023/05/12 00:26:53;;;;;;;23.45;12.25;;;11.90;99.90;;;;;;5092428;28;20043;-61
2023/05/12 00:29:18;;;;;;;22.80;12.00;;;11.90;99.90;;;;;;5091396;28;20039;-61
2023/05/12 00:31:44;;;;;;;22.17;12.35;;;12.00;99.90;;;;;;5089427;28;20044;-60
2023/05/12 00:34:09;;;;;;;25.88;13.70;;;11.90;99.90;;;;;;5090902;28;20043;-61
2023/05/12 00:36:35;;;;;;;24.00;12.93;;;11.90;99.90;;;;;;5089274;28;20394;-61
2023/05/12 00:39:02;;;;;;;28.13;13.57;;;11.90;99.90;;;;;;5091581;28;20167;-61
2023/05/12 00:41:28;;;;;;;27.05;12.75;;;12.00;99.90;;;;;;5089887;28;20036;-61
2023/05/12 00:43:53;;;;;;;25.10;12.23;;;11.90;99.90;;;;;;5089532;28;20031;-61
2023/05/12 00:46:20;;;;;;;25.60;13.13;;;11.90;99.90;;;;;;5091908;28;20043;-61
2023/05/12 00:48:46;;;;;;;33.78;15.02;;;11.90;99.90;;;;;;5090499;28;20075;-61
2023/05/12 00:51:14;;;;;;;29.65;14.30;;;12.00;99.90;;;;;;5090834;28;20482;-60
2023/05/12 00:53:41;;;;;;;31.02;14.77;;;11.90;99.90;;;;;;5092009;28;20040;-61
2023/05/12 00:56:07;;;;;;;31.83;14.95;;;11.90;99.90;;;;;;5088963;28;20043;-61
2023/05/12 00:58:33;;;;;;;32.70;15.65;;;12.00;99.90;;;;;;5091307;28;20124;-60
2023/05/12 01:00:58;;;;;;;31.98;15.23;;;11.90;99.90;;;;;;5090638;28;20063;-60
2023/05/12 01:03:24;;;;;;;35.60;17.15;;;11.90;99.90;;;;;;5089564;28;20028;-61
2023/05/12 01:05:54;;;;;;;39.25;18.45;;;11.90;99.90;;;;;;5091976;28;20040;-61
2023/05/12 01:08:22;;;;;;;37.92;18.35;;;12.00;99.90;;;;;;5092123;28;20036;-60
2023/05/12 01:10:47;;;;;;;39.47;18.02;;;11.90;99.90;;;;;;5073789;28;20557;-60
2023/05/12 01:13:13;;;;;;;41.70;19.27;;;12.00;99.90;;;;;;5072495;28;20115;-61
2023/05/12 01:15:46;;;;;;;44.17;20.05;;;12.00;99.90;;;;;;5089742;28;20036;-60
2023/05/12 01:18:14;;;;;;;40.03;19.52;;;11.90;99.90;;;;;;5089990;28;20123;-61
2023/05/12 01:20:42;;;;;;;45.00;20.33;;;12.00;99.90;;;;;;5083997;28;20528;-60
2023/05/12 01:23:08;;;;;;;48.30;20.88;;;12.00;99.90;;;;;;5089161;28;20044;-61
2023/05/12 01:25:36;;;;;;;41.70;21.25;;;12.00;99.90;;;;;;5090826;28;20035;-61
2023/05/12 01:28:02;;;;;;;44.45;20.45;;;12.00;99.90;;;;;;5090241;28;20173;-60
2023/05/12 01:30:28;;;;;;;43.25;19.92;;;12.00;99.90;;;;;;5091406;28;20040;-61
2023/05/12 01:32:54;;;;;;;45.95;21.70;;;12.00;99.90;;;;;;5090293;28;20123;-60
2023/05/12 01:35:20;;;;;;;56.95;22.98;;;12.00;99.90;;;;;;5089753;28;20170;-61
2023/05/12 01:37:45;;;;;;;51.63;23.45;;;12.00;99.90;;;;;;5090370;28;20036;-61
2023/05/12 01:40:11;;;;;;;50.15;22.08;;;11.90;99.90;;;;;;5089899;28;20043;-60
2023/05/12 01:42:41;;;;;;;52.60;21.50;;;12.10;99.90;;;;;;5090254;28;20114;-60
2023/05/12 01:45:08;;;;;;;54.47;22.98;;;12.10;99.90;;;;;;5091255;28;20055;-60
2023/05/12 01:47:33;;;;;;;54.80;22.67;;;12.10;99.90;;;;;;5089476;28;20032;-60
2023/05/12 01:49:59;;;;;;;48.88;22.70;;;12.00;99.90;;;;;;5090249;28;20042;-60
2023/05/12 01:52:24;;;;;;;54.00;23.33;;;12.00;99.90;;;;;;5092146;28;20439;-61
2023/05/12 01:54:50;;;;;;;50.33;22.42;;;12.10;99.90;;;;;;5093871;28;20059;-61
2023/05/12 01:57:16;;;;;;;53.25;23.42;;;12.00;99.90;;;;;;5094413;28;20383;-61
2023/05/12 01:59:42;;;;;;;55.95;22.80;;;12.00;99.90;;;;;;5094359;28;20046;-61
2023/05/12 02:02:07;;;;;;;56.08;24.48;;;12.00;99.90;;;;;;5091454;28;20114;-61
2023/05/12 02:04:33;;;;;;;57.83;23.15;;;12.10;99.90;;;;;;5092841;28;20036;-61
2023/05/12 02:06:59;;;;;;;59.83;25.60;;;12.00;99.90;;;;;;5089117;28;20032;-61
2023/05/12 02:09:25;;;;;;;57.63;25.45;;;12.00;99.90;;;;;;5093687;28;20501;-61
2023/05/12 02:11:50;;;;;;;60.63;25.90;;;12.00;99.90;;;;;;5093522;28;20047;-62
2023/05/12 02:14:16;;;;;;;63.88;26.08;;;12.10;99.90;;;;;;5093199;28;20485;-61
2023/05/12 02:16:42;;;;;;;61.10;25.95;;;12.10;99.90;;;;;;5093864;28;20500;-61
2023/05/12 02:19:07;;;;;;;64.38;25.23;;;12.10;99.90;;;;;;5091886;28;20037;-61
2023/05/12 02:21:33;;;;;;;64.53;27.23;;;12.10;99.90;;;;;;5093714;28;20036;-61
2023/05/12 02:23:58;;;;;;;66.90;26.60;;;12.10;99.90;;;;;;5094697;28;20040;-61
2023/05/12 02:26:24;;;;;;;66.20;26.88;;;12.10;99.90;;;;;;5093704;28;20032;-61
2023/05/12 02:28:50;;;;;;;67.07;27.85;;;12.10;99.90;;;;;;5094082;28;20039;-61
2023/05/12 02:31:15;;;;;;;67.90;26.95;;;12.20;99.90;;;;;;5094497;28;20076;-61
2023/05/12 02:33:42;;;;;;;74.47;28.13;;;12.20;99.90;;;;;;5092574;28;20043;-61
2023/05/12 02:36:07;;;;;;;72.22;29.05;;;12.20;99.90;;;;;;5092476;28;20040;-61
2023/05/12 02:38:33;;;;;;;73.25;28.98;;;12.20;99.90;;;;;;5093999;28;20570;-61
2023/05/12 02:40:59;;;;;;;75.88;30.25;;;12.20;99.90;;;;;;5093319;28;20055;-61
2023/05/12 02:43:24;;;;;;;70.63;29.13;;;12.30;99.90;;;;;;5092368;28;20044;-61
2023/05/12 02:45:50;;;;;;;64.50;27.70;;;12.30;99.90;;;;;;5093317;28;20480;-62
2023/05/12 02:48:16;;;;;;;65.35;27.75;;;12.20;99.90;;;;;;5093784;28;20105;-61
2023/05/12 02:50:42;;;;;;;70.70;28.48;;;12.30;99.90;;;;;;5094080;28;20036;-61
2023/05/12 02:53:08;;;;;;;60.15;26.60;;;12.30;99.90;;;;;;5084368;28;20037;-61
2023/05/12 02:55:33;;;;;;;65.70;28.70;;;12.30;99.90;;;;;;5093095;28;20081;-61
2023/05/12 02:57:59;;;;;;;67.90;29.20;;;12.20;99.90;;;;;;5091617;28;20089;-61
2023/05/12 03:00:25;;;;;;;65.45;27.75;;;12.20;99.90;;;;;;5093901;28;20066;-61
2023/05/12 03:02:50;;;;;;;61.78;26.98;;;12.20;99.90;;;;;;5091739;28;20036;-61
2023/05/12 03:05:16;;;;;;;60.75;26.83;;;12.20;99.90;;;;;;5091579;28;20093;-61
2023/05/12 03:07:42;;;;;;;64.22;27.77;;;12.20;99.90;;;;;;5093620;28;20032;-61
2023/05/12 03:10:09;;;;;;;70.45;29.33;;;12.20;99.90;;;;;;5092691;28;20048;-61
2023/05/12 03:12:35;;;;;;;62.78;28.33;;;12.20;99.90;;;;;;5082654;28;20044;-61
2023/05/12 03:15:00;;;;;;;66.97;29.83;;;12.20;99.90;;;;;;5076505;28;20075;-61
2023/05/12 03:17:26;;;;;;;70.82;30.30;;;12.30;99.90;;;;;;5093759;28;20040;-61
2023/05/12 03:19:52;;;;;;;70.07;29.80;;;12.30;99.90;;;;;;5092848;28;20137;-61
2023/05/12 03:22:17;;;;;;;73.10;30.65;;;12.30;99.90;;;;;;5091372;28;20036;-61
2023/05/12 03:24:43;;;;;;;73.10;30.77;;;12.30;99.90;;;;;;5091793;28;20036;-62
2023/05/12 03:27:09;;;;;;;73.97;30.58;;;12.30;99.90;;;;;;5090059;28;20482;-61
2023/05/12 03:29:35;;;;;;;70.50;29.77;;;12.30;99.90;;;;;;5091781;28;20464;-62
2023/05/12 03:32:00;;;;;;;76.35;30.65;;;12.30;99.90;;;;;;5092365;28;20092;-61
2023/05/12 03:34:26;;;;;;;74.72;29.85;;;12.30;99.90;;;;;;5092295;28;20040;-61
2023/05/12 03:36:52;;;;;;;74.57;30.98;;;12.30;99.90;;;;;;5092955;28;20149;-61
2023/05/12 03:39:17;;;;;;;81.93;32.90;;;12.30;99.90;;;;;;5091707;28;20050;-61
2023/05/12 03:41:43;;;;;;;77.35;31.38;;;12.30;99.90;;;;;;5091434;28;20032;-61
2023/05/12 03:44:09;;;;;;;73.25;29.55;;;12.40;99.90;;;;;;5078628;28;20068;-62
2023/05/12 03:46:35;;;;;;;80.65;32.95;;;12.30;99.90;;;;;;5085939;28;20035;-61
2023/05/12 03:49:01;;;;;;;80.18;32.60;;;12.30;99.90;;;;;;5093037;28;20065;-61
2023/05/12 03:51:30;;;;;;;82.07;32.65;;;12.30;99.90;;;;;;5090956;28;20040;-62
2023/05/12 03:53:55;;;;;;;80.70;32.72;;;12.30;99.90;;;;;;5088710;28;20559;-61
2023/05/12 03:56:21;;;;;;;84.43;33.50;;;12.30;99.90;;;;;;5086023;28;20080;-61
2023/05/12 03:58:47;;;;;;;83.65;32.92;;;12.20;99.90;;;;;;5092927;28;20040;-62
2023/05/12 04:01:12;;;;;;;85.68;33.95;;;12.30;99.90;;;;;;5089260;28;20032;-61
2023/05/12 04:03:40;;;;;;;71.68;29.83;;;12.30;99.90;;;;;;5085419;28;20032;-61
2023/05/12 04:06:06;;;;;;;81.80;33.72;;;12.30;99.90;;;;;;5090497;28;20101;-61
2023/05/12 04:08:32;;;;;;;80.43;32.67;;;12.30;99.90;;;;;;5092259;28;20036;-62
2023/05/12 04:10:59;;;;;;;77.68;31.88;;;12.30;99.90;;;;;;5091207;28;20503;-61
2023/05/12 04:13:26;;;;;;;78.40;31.98;;;12.40;99.90;;;;;;5091700;28;20036;-62
2023/05/12 04:15:56;;;;;;;80.85;33.53;;;12.40;99.90;;;;;;5085067;28;20111;-61
2023/05/12 04:18:22;;;;;;;79.38;32.55;;;12.40;99.90;;;;;;5091149;28;20044;-62
2023/05/12 04:20:48;;;;;;;75.07;31.58;;;12.40;99.90;;;;;;5089554;28;20140;-61
2023/05/12 04:23:14;;;;;;;84.78;32.15;;;12.30;99.90;;;;;;5083159;28;20092;-61
2023/05/12 04:25:40;;;;;;;87.13;33.60;;;12.50;99.90;;;;;;5088321;28;20058;-62
2023/05/12 04:28:06;;;;;;;84.25;33.15;;;12.50;99.90;;;;;;5090957;28;20028;-61
2023/05/12 04:30:32;;;;;;;78.65;32.38;;;12.50;99.90;;;;;;5092274;28;20485;-62
2023/05/12 04:32:57;;;;;;;72.13;31.23;;;12.50;99.90;;;;;;5089856;28;20036;-61
2023/05/12 04:35:23;;;;;;;71.78;31.23;;;12.50;99.90;;;;;;5089420;28;20068;-62
2023/05/12 04:37:49;;;;;;;79.40;31.80;;;12.60;99.90;;;;;;5092054;28;20584;-61
2023/05/12 04:40:15;;;;;;;73.80;30.83;;;12.50;99.90;;;;;;5091406;28;20043;-61
2023/05/12 04:42:40;;;;;;;71.13;30.48;;;12.60;99.90;;;;;;5090582;28;20040;-61
2023/05/12 04:45:07;;;;;;;66.38;28.92;;;12.60;99.90;;;;;;5091477;28;20036;-61
2023/05/12 04:47:32;;;;;;;74.00;30.85;;;12.50;99.90;;;;;;5091210;28;20024;-61
2023/05/12 04:49:58;;;;;;;63.67;29.08;;;12.60;99.90;;;;;;5091369;28;20101;-61
2023/05/12 04:52:23;;;;;;;71.20;31.23;;;12.60;99.90;;;;;;5090821;28;20039;-61
2023/05/12 04:54:49;;;;;;;67.47;30.85;;;12.50;99.90;;;;;;5087320;28;20572;-61
2023/05/12 04:57:15;;;;;;;66.75;29.25;;;12.60;99.90;;;;;;5073145;28;20178;-61
2023/05/12 04:59:43;;;;;;;68.30;29.40;;;12.70;99.90;;;;;;5067990;28;20043;-62
2023/05/12 05:02:10;;;;;;;62.30;28.63;;;12.70;99.90;;;;;;5062155;28;20040;-61
2023/05/12 05:04:36;;;;;;;64.00;28.95;;;12.70;99.90;;;;;;5080017;28;20131;-61
2023/05/12 05:07:02;;;;;;;63.03;27.38;;;12.70;99.90;;;;;;5086902;28;20040;-61
2023/05/12 05:09:27;;;;;;;62.65;27.30;;;12.70;99.90;;;;;;5088529;28;20046;-61
2023/05/12 05:11:53;;;;;;;62.97;28.67;;;12.70;99.90;;;;;;5089817;28;20063;-61
2023/05/12 05:14:18;;;;;;;58.35;26.58;;;12.70;99.90;;;;;;5088179;28;20039;-61
2023/05/12 05:16:45;;;;;;;56.50;26.90;;;12.70;99.90;;;;;;5091253;28;20174;-61
2023/05/12 05:19:12;;;;;;;56.60;28.05;;;12.70;99.90;;;;;;5090743;28;20039;-61
2023/05/12 05:21:37;;;;;;;56.58;26.85;;;12.70;99.90;;;;;;5090540;28;20040;-61
2023/05/12 05:24:03;;;;;;;63.83;27.05;;;12.70;99.90;;;;;;5083865;28;20035;-61
2023/05/12 05:26:29;;;;;;;62.30;28.20;;;12.70;99.90;;;;;;5088252;28;20161;-61
2023/05/12 05:28:54;;;;;;;71.45;29.65;;;12.70;99.90;;;;;;5090604;28;20052;-61
2023/05/12 05:31:20;;;;;;;68.60;29.20;;;12.70;99.90;;;;;;5093319;28;20123;-61
2023/05/12 05:33:46;;;;;;;69.97;29.60;;;12.70;99.90;;;;;;5093363;28;20036;-61
2023/05/12 05:36:12;;;;;;;70.85;31.33;;;12.70;99.90;;;;;;5095497;28;20064;-61
2023/05/12 05:38:38;;;;;;;71.80;30.15;;;12.70;99.90;;;;;;5096007;28;20076;-61
2023/05/12 05:41:04;;;;;;;73.78;30.70;;;12.70;99.90;;;;;;5092865;28;20040;-62
2023/05/12 05:43:30;;;;;;;71.38;30.75;;;12.70;99.90;;;;;;5093588;28;20047;-61
2023/05/12 05:45:57;;;;;;;71.90;30.77;;;12.70;99.90;;;;;;5094018;28;20040;-61
2023/05/12 05:48:25;;;;;;;75.15;30.98;;;12.70;99.90;;;;;;5094746;28;20421;-62
2023/05/12 05:50:52;;;;;;;71.32;30.15;;;12.70;99.90;;;;;;5093460;28;20067;-61
2023/05/12 05:53:19;;;;;;;72.82;30.95;;;12.80;99.90;;;;;;5093447;28;20036;-61
2023/05/12 05:55:47;;;;;;;73.57;30.77;;;12.80;99.90;;;;;;5095652;28;20032;-61
2023/05/12 05:58:14;;;;;;;78.55;31.08;;;12.80;99.90;;;;;;5100438;27;20126;-61
2023/05/12 06:00:41;;;;;;;83.63;32.47;;;12.80;99.90;;;;;;5091330;28;20135;-61
2023/05/12 06:03:07;;;;;;;75.72;30.67;;;12.90;99.90;;;;;;5091510;28;20035;-61
2023/05/12 06:05:32;;;;;;;71.95;28.63;;;12.90;99.90;;;;;;5089378;28;20486;-61
2023/05/12 06:07:58;;;;;;;77.50;31.42;;;12.90;99.90;;;;;;5088116;28;20036;-61
2023/05/12 06:10:23;;;;;;;69.97;29.13;;;13.00;99.90;;;;;;5089634;28;20059;-61
2023/05/12 06:12:49;;;;;;;71.35;30.42;;;12.90;99.90;;;;;;5089592;28;20029;-61
2023/05/12 06:15:15;;;;;;;85.30;33.65;;;13.00;99.90;;;;;;5090071;28;20043;-61
2023/05/12 06:17:41;;;;;;;75.55;31.48;;;13.00;99.90;;;;;;5093716;28;20059;-61
2023/05/12 06:20:07;;;;;;;65.10;30.38;;;13.00;99.90;;;;;;5090030;28;20075;-61
2023/05/12 06:22:36;;;;;;;67.15;29.42;;;13.00;99.90;;;;;;5092919;28;20058;-61
2023/05/12 06:25:02;;;;;;;68.45;29.92;;;13.00;99.90;;;;;;5093672;28;20040;-61
2023/05/12 06:27:28;;;;;;;73.13;31.05;;;13.10;99.90;;;;;;5094097;28;20489;-61
2023/05/12 06:29:54;;;;;;;69.70;30.95;;;13.10;99.90;;;;;;5093813;28;20038;-61
2023/05/12 06:32:19;;;;;;;71.32;30.75;;;13.10;99.90;;;;;;5092434;28;20036;-61
2023/05/12 06:34:45;;;;;;;68.40;31.30;;;13.10;99.90;;;;;;5093205;28;20047;-61
2023/05/12 06:37:10;;;;;;;68.47;30.30;;;13.20;99.90;;;;;;5093376;28;20036;-61
2023/05/12 06:39:36;;;;;;;67.03;28.83;;;13.20;99.90;;;;;;5093311;28;20040;-61
2023/05/12 06:42:01;;;;;;;67.20;29.75;;;13.30;99.90;;;;;;5093024;28;20036;-61
2023/05/12 06:44:27;;;;;;;65.60;29.08;;;13.30;99.90;;;;;;5093520;28;20064;-61
2023/05/12 06:46:53;;;;;;;64.53;30.00;;;13.30;99.90;;;;;;5091365;28;20397;-61
2023/05/12 06:49:18;;;;;;;58.97;29.15;;;13.40;99.90;;;;;;5091563;28;20077;-61
2023/05/12 06:51:44;;;;;;;62.67;28.92;;;13.30;99.90;;;;;;5091733;28;20117;-61
2023/05/12 06:54:10;;;;;;;59.80;28.88;;;13.30;99.90;;;;;;5093167;28;20040;-61
2023/05/12 06:56:36;;;;;;;59.47;29.55;;;13.40;99.90;;;;;;5092681;28;20036;-61
2023/05/12 06:59:02;;;;;;;62.15;28.25;;;13.40;99.90;;;;;;5093492;28;20040;-61
2023/05/12 07:01:29;;;;;;;63.05;27.85;;;13.40;99.90;;;;;;5083797;28;20037;-61
2023/05/12 07:03:56;;;;;;;61.50;29.80;;;13.50;99.90;;;;;;5081071;28;20032;-61
2023/05/12 07:06:23;;;;;;;66.90;30.90;;;13.50;99.90;;;;;;5091313;28;20111;-60
2023/05/12 07:08:48;;;;;;;61.05;30.02;;;13.50;99.90;;;;;;5093076;28;20040;-61
2023/05/12 07:11:18;;;;;;;68.43;31.30;;;13.50;99.90;;;;;;5093132;28;20032;-61
2023/05/12 07:13:49;;;;;;;58.85;29.70;;;13.60;99.90;;;;;;5092507;28;20044;-61
2023/05/12 07:16:16;;;;;;;63.93;29.40;;;13.70;99.90;;;;;;5092400;28;20047;-61
2023/05/12 07:18:42;;;;;;;63.63;29.10;;;13.70;99.90;;;;;;5092897;28;20455;-61
2023/05/12 07:21:08;;;;;;;60.70;29.48;;;13.80;99.90;;;;;;5088324;28;20028;-61
2023/05/12 07:23:34;;;;;;;63.88;29.65;;;13.90;99.90;;;;;;5092787;28;20104;-60
2023/05/12 07:26:01;;;;;;;66.55;29.92;;;13.90;99.90;;;;;;5092391;28;20160;-61
2023/05/12 07:28:34;;;;;;;61.72;30.30;;;13.90;99.90;;;;;;5089883;28;20040;-61
2023/05/12 07:31:00;;;;;;;65.40;30.52;;;13.90;99.90;;;;;;5085950;28;20040;-61
2023/05/12 07:33:25;;;;;;;60.33;28.40;;;13.90;99.90;;;;;;5091141;28;20142;-61
2023/05/12 07:35:51;;;;;;;61.55;30.52;;;13.80;99.90;;;;;;5093321;28;20390;-61
2023/05/12 07:38:16;;;;;;;58.85;29.55;;;13.80;99.90;;;;;;5093273;28;20040;-61
2023/05/12 07:40:43;;;;;;;63.20;30.67;;;13.90;99.90;;;;;;5090374;28;20049;-61
2023/05/12 07:43:09;;;;;;;61.58;29.77;;;13.90;99.90;;;;;;5091381;28;20036;-61
2023/05/12 07:45:35;;;;;;;59.63;29.60;;;13.90;99.90;;;;;;5087484;28;20547;-61
2023/05/12 07:48:01;;;;;;;63.67;30.70;;;13.90;99.90;;;;;;5089682;28;20044;-61
2023/05/12 07:50:26;;;;;;;62.17;29.92;;;13.90;99.90;;;;;;5092845;28;20397;-61
2023/05/12 07:52:52;;;;;;;60.45;30.23;;;13.90;99.90;;;;;;5091310;28;20111;-60
2023/05/12 07:55:19;;;;;;;64.45;30.38;;;13.80;99.90;;;;;;5090643;28;20028;-61
2023/05/12 07:57:45;;;;;;;63.72;31.00;;;13.80;99.90;;;;;;5091477;28;20046;-61
2023/05/12 08:00:12;;;;;;;61.35;31.05;;;13.80;99.90;;;;;;5089193;28;20040;-61
2023/05/12 08:02:38;;;;;;;59.72;28.27;;;13.80;99.90;;;;;;5090331;28;20068;-61
2023/05/12 08:05:05;;;;;;;60.72;30.20;;;13.80;99.90;;;;;;5089915;28;20044;-61
2023/05/12 08:07:31;;;;;;;59.28;30.67;;;13.80;99.90;;;;;;5091361;28;20036;-61
2023/05/12 08:09:56;;;;;;;59.40;29.02;;;13.90;99.90;;;;;;5090654;28;20382;-61
2023/05/12 08:12:22;;;;;;;57.47;29.45;;;14.00;99.90;;;;;;5090788;28;20066;-61
2023/05/12 08:14:47;;;;;;;51.35;28.33;;;14.00;99.90;;;;;;5078073;28;20036;-61
2023/05/12 08:17:13;;;;;;;58.72;28.35;;;14.00;99.90;;;;;;5085854;28;20081;-60
2023/05/12 08:19:38;;;;;;;49.97;26.95;;;14.10;99.90;;;;;;5084984;28;20042;-60
2023/05/12 08:22:04;;;;;;;55.50;29.40;;;14.10;99.90;;;;;;5087751;28;20043;-61
2023/05/12 08:24:29;;;;;;;50.42;28.30;;;14.10;99.90;;;;;;5091650;28;20082;-61
2023/05/12 08:26:55;;;;;;;50.38;27.50;;;14.20;99.90;;;;;;5089908;28;20044;-61
2023/05/12 08:29:21;;;;;;;51.25;28.23;;;14.30;99.90;;;;;;5090367;28;20549;-60
2023/05/12 08:31:47;;;;;;;51.03;27.95;;;14.30;99.90;;;;;;5090969;28;20040;-60
2023/05/12 08:34:12;;;;;;;55.25;28.25;;;14.40;99.90;;;;;;5089937;28;20067;-61
2023/05/12 08:36:38;;;;;;;56.30;29.60;;;14.50;99.90;;;;;;5090779;28;20040;-61
2023/05/12 08:39:04;;;;;;;52.08;28.08;;;14.60;99.90;;;;;;5089752;28;20032;-61
2023/05/12 08:41:47;;;;;;;49.25;26.88;;;14.70;99.90;;;;;;5086849;28;20118;-61
2023/05/12 08:44:14;;;;;;;47.28;27.13;;;14.80;99.90;;;;;;5089088;28;20039;-61
2023/05/12 08:46:42;;;;;;;47.83;26.67;;;14.90;99.90;;;;;;5083655;28;20045;-61
2023/05/12 08:49:15;;;;;;;50.85;28.15;;;15.00;99.90;;;;;;5081995;28;20051;-61
2023/05/12 08:51:45;;;;;;;46.08;26.88;;;15.10;99.90;;;;;;5084626;28;20032;-60
2023/05/12 08:54:12;;;;;;;41.83;25.77;;;15.20;99.90;;;;;;5086467;28;20032;-61
2023/05/12 08:56:41;;;;;;;44.38;25.20;;;15.30;99.90;;;;;;5086019;28;20124;-61
2023/05/12 08:59:08;;;;;;;42.72;25.48;;;15.40;99.90;;;;;;5089856;28;20108;-61
2023/05/12 09:01:35;;;;;;;41.45;24.75;;;15.50;99.90;;;;;;5090612;28;20035;-60
2023/05/12 09:04:01;;;;;;;42.28;25.85;;;15.50;99.90;;;;;;5091965;28;20393;-61
2023/05/12 09:06:27;;;;;;;43.70;25.92;;;15.50;99.90;;;;;;5090879;28;20047;-61
2023/05/12 09:08:53;;;;;;;44.40;26.08;;;15.70;99.90;;;;;;5086776;28;20054;-60
2023/05/12 09:11:20;;;;;;;43.10;26.35;;;15.80;99.90;;;;;;5084355;28;20118;-61
2023/05/12 09:14:09;;;;;;;44.03;26.30;;;15.80;99.90;;;;;;5085432;28;20044;-60
2023/05/12 09:16:40;;;;;;;42.65;25.83;;;15.90;99.90;;;;;;5084838;28;20054;-61
2023/05/12 09:19:05;;;;;;;;;;;15.90;99.90;;;;;;5090441;28;20048;-61
2023/05/12 09:21:31;;;;;;;45.75;25.98;;;16.00;99.90;;;;;;5089619;28;19919;-61
2023/05/12 09:24:05;;;;;;;40.22;25.48;;;16.00;99.90;;;;;;5089000;28;20111;-61
2023/05/12 09:26:54;;;;;;;40.85;25.35;;;16.00;99.90;;;;;;5091310;28;20062;-61
2023/05/12 09:29:20;;;;;;;38.75;25.05;;;16.00;99.90;;;;;;5089869;28;20119;-60
2023/05/12 09:32:03;;;;;;;37.90;24.70;;;16.00;99.90;;;;;;5090415;28;20116;-61
2023/05/12 09:34:37;;;;;;;36.53;23.48;;;16.10;99.90;;;;;;5090329;28;20028;-61
2023/05/12 09:37:05;;;;;;;41.05;26.05;;;16.20;99.90;;;;;;5089792;28;20048;-61
2023/05/12 09:39:32;;;;;;;38.15;24.60;;;16.30;99.90;;;;;;5087770;28;20072;-61
2023/05/12 09:41:57;;;;;;;36.50;24.20;;;16.50;99.90;;;;;;5089168;28;20039;-60
2023/05/12 09:44:24;;;;;;;35.92;24.38;;;16.60;99.90;;;;;;5089558;28;20032;-61
2023/05/12 09:46:50;;;;;;;37.10;24.13;;;16.60;99.90;;;;;;5087631;28;20033;-61
2023/05/12 09:49:19;;;;;;;39.22;24.08;;;16.70;99.90;;;;;;5090963;28;20132;-61
2023/05/12 09:51:45;;;;;;;34.35;22.77;;;16.80;99.90;;;;;;5083803;28;20036;-60
2023/05/12 09:54:11;;;;;;;31.80;21.55;;;16.90;99.90;;;;;;5082793;28;20047;-60
2023/05/12 09:56:37;;;;;;;32.90;23.25;;;17.00;99.90;;;;;;5089086;28;20080;-61
2023/05/12 09:59:04;;;;;;;31.98;22.20;;;17.20;99.90;;;;;;5090009;28;20040;-61
2023/05/12 10:01:30;;;;;;;28.30;20.77;;;17.30;99.90;;;;;;5082398;28;20485;-61
2023/05/12 10:03:57;;;;;;;28.00;20.67;;;17.40;99.90;;;;;;5087635;28;20028;-61
2023/05/12 10:06:36;;;;;;;25.35;18.85;;;17.50;99.90;;;;;;5084300;28;20500;-60
2023/05/12 10:09:19;;;;;;;25.55;18.15;;;17.60;99.90;;;;;;5087669;28;20045;-61
2023/05/12 10:11:46;;;;;;;26.10;18.65;;;17.70;99.90;;;;;;5088276;28;20040;-61
2023/05/12 10:14:12;;;;;;;23.92;17.52;;;17.80;99.90;;;;;;5085635;28;20517;-61
2023/05/12 10:16:40;;;;;;;26.60;18.70;;;17.90;99.90;;;;;;5088910;28;20427;-60
2023/05/12 10:19:06;;;;;;;24.63;18.38;;;18.00;99.90;;;;;;5086538;28;20106;-60
2023/05/12 10:21:31;;;;;;;20.90;17.00;;;18.00;99.90;;;;;;5092655;28;20108;-61
2023/05/12 10:23:58;;;;;;;19.27;15.43;;;18.10;99.90;;;;;;5091579;28;20530;-61
2023/05/12 10:26:24;;;;;;;18.08;13.40;;;18.10;99.90;;;;;;5092608;28;20036;-61
2023/05/12 10:28:51;;;;;;;20.25;14.90;;;18.20;99.90;;;;;;5091189;28;20044;-61
2023/05/12 10:31:18;;;;;;;21.00;16.33;;;18.30;99.90;;;;;;5090526;28;20032;-61
2023/05/12 10:33:58;;;;;;;19.63;15.45;;;18.30;99.90;;;;;;5083136;28;20036;-61
2023/05/12 10:36:24;;;;;;;17.85;14.02;;;18.40;99.90;;;;;;5084958;28;20494;-61
2023/05/12 10:38:50;;;;;;;15.27;12.25;;;18.60;99.90;;;;;;5093568;28;20036;-61
2023/05/12 10:41:16;;;;;;;13.60;11.20;;;18.60;99.90;;;;;;5092796;28;20040;-61
2023/05/12 10:43:47;;;;;;;15.73;12.32;;;18.60;99.90;;;;;;5092561;28;20509;-61
2023/05/12 10:46:20;;;;;;;14.00;11.88;;;18.60;99.90;;;;;;5092388;28;20063;-61
2023/05/12 10:48:51;;;;;;;15.85;12.32;;;18.70;99.90;;;;;;5089908;28;20040;-61
2023/05/12 10:51:27;;;;;;;13.68;11.35;;;18.80;99.90;;;;;;5087705;28;20046;-61
2023/05/12 10:53:58;;;;;;;14.32;12.02;;;18.80;99.90;;;;;;5089820;28;20032;-61
2023/05/12 10:56:26;;;;;;;18.17;13.50;;;18.90;99.90;;;;;;5092030;28;20039;-61
2023/05/12 10:59:18;;;;;;;20.10;13.07;;;18.80;99.90;;;;;;5093056;28;20620;-61
2023/05/12 11:01:59;;;;;;;15.88;12.80;;;18.90;99.90;;;;;;5087367;28;20032;-61
2023/05/12 11:04:40;;;;;;;16.73;12.98;;;19.10;99.90;;;;;;5094035;28;20502;-61
2023/05/12 11:07:10;;;;;;;19.83;13.90;;;19.30;99.90;;;;;;5091077;28;20040;-61
2023/05/12 11:09:43;;;;;;;16.65;13.35;;;19.40;99.90;;;;;;5085949;28;20067;-61
2023/05/12 11:12:11;;;;;;;19.83;15.20;;;19.50;99.90;;;;;;5091180;28;20042;-62
2023/05/12 11:14:39;;;;;;;20.10;15.30;;;19.60;99.90;;;;;;5093367;28;20486;-61
2023/05/12 11:17:05;;;;;;;17.42;14.48;;;19.70;99.90;;;;;;5081048;28;20044;-61
2023/05/12 11:19:32;;;;;;;20.17;15.50;;;19.80;99.90;;;;;;5093301;28;20036;-62
2023/05/12 11:22:08;;;;;;;24.65;17.70;;;19.80;99.90;;;;;;5090015;28;20059;-61
2023/05/12 11:24:34;;;;;;;21.88;18.60;;;19.80;99.90;;;;;;5085022;28;20043;-61
2023/05/12 11:27:00;;;;;;;23.08;19.02;;;19.80;99.90;;;;;;5092196;28;20101;-62
2023/05/12 11:29:26;;;;;;;26.80;19.77;;;19.80;99.90;;;;;;5093280;28;20485;-61
2023/05/12 11:31:52;;;;;;;21.92;19.10;;;19.90;99.90;;;;;;5092504;28;20040;-61
2023/05/12 11:34:22;;;;;;;23.02;19.42;;;20.10;99.90;;;;;;5091570;28;20075;-61
2023/05/12 11:36:51;;;;;;;22.43;18.40;;;20.20;99.90;;;;;;5090030;28;20036;-61
2023/05/12 11:39:21;;;;;;;23.00;16.80;;;20.30;99.90;;;;;;5087826;28;20385;-61
2023/05/12 11:41:48;;;;;;;24.25;19.40;;;20.50;99.90;;;;;;5072593;28;20089;-61
2023/05/12 11:44:18;;;;;;;24.40;20.27;;;20.50;99.90;;;;;;5091258;28;20111;-61
2023/05/12 11:47:13;;;;;;;25.17;20.92;;;20.60;99.90;;;;;;5091849;28;20040;-61
2023/05/12 11:49:51;;;;;;;19.05;16.10;;;20.70;99.90;;;;;;5077022;28;20127;-61
2023/05/12 11:52:18;;;;;;;20.80;16.73;;;20.70;99.90;;;;;;5091506;28;20028;-61
2023/05/12 11:54:51;;;;;;;20.90;16.55;;;20.80;99.90;;;;;;5089772;28;20074;-61
2023/05/12 11:57:26;;;;;;;20.13;17.15;;;20.90;99.90;;;;;;5091805;28;20050;-61
2023/05/12 11:59:59;;;;;;;19.77;17.00;;;20.90;99.90;;;;;;5092186;28;20036;-62
2023/05/12 12:02:25;;;;;;;23.63;18.55;;;20.90;99.90;;;;;;5087046;28;20040;-61
2023/05/12 12:04:50;;;;;;;19.20;16.02;;;20.90;99.90;;;;;;5090736;28;20028;-62
2023/05/12 12:07:26;;;;;;;21.77;16.38;;;21.00;99.90;;;;;;5092821;28;20119;-61
2023/05/12 12:09:52;;;;;;;19.52;16.88;;;21.00;99.90;;;;;;5092481;28;20048;-61
2023/05/12 12:12:17;;;;;;;21.38;18.08;;;21.00;99.90;;;;;;5086222;28;20032;-61
2023/05/12 12:14:43;;;;;;;20.75;17.75;;;21.10;99.90;;;;;;5091441;28;20517;-62
2023/05/12 12:17:09;;;;;;;18.83;16.00;;;21.10;99.90;;;;;;5088953;28;20036;-61
2023/05/12 12:19:34;;;;;;;22.65;16.27;;;21.20;99.90;;;;;;5091162;28;20036;-62
2023/05/12 12:22:01;;;;;;;15.35;12.38;;;21.20;99.90;;;;;;5088640;28;20036;-61
2023/05/12 12:24:26;;;;;;;15.52;13.30;;;21.20;99.90;;;;;;5073217;28;20122;-61
2023/05/12 12:26:52;;;;;;;14.50;11.50;;;21.30;99.90;;;;;;5089690;28;20043;-61